Observation data for Reese Center on 11/06/2019      Previous  Date       Current Mesonet Observations  Soil Data  Daily Summary Page  Observations in Plain Language
KREE 060600Z 20002KT 07/04 A302 RMK A01 T00670043  RH  085%=      5-min Rain = 0
KREE 060605Z 22002KT 06/04 A302 RMK A01 T00620039  RH  086%=      5-min Rain = 0
KREE 060610Z 20003KT 06/04 A302 RMK A01 T00640044  RH  088%=      5-min Rain = 0
KREE 060615Z 19004KT 07/05 A302 RMK A01 T00660046  RH  088%=      5-min Rain = 0
KREE 060620Z 19004KT 07/05 A302 RMK A01 T00670047  RH  088%=      5-min Rain = 0
KREE 060625Z 19005KT 07/05 A302 RMK A01 T00700049  RH  088%=      5-min Rain = 0
KREE 060630Z 18005KT 07/05 A302 RMK A01 T00690047  RH  087%=      5-min Rain = 0
KREE 060635Z 18004KT 07/04 A302 RMK A01 T00670044  RH  087%=      5-min Rain = 0
KREE 060640Z 18005KT 07/04 A302 RMK A01 T00660044  RH  087%=      5-min Rain = 0
KREE 060645Z 18004KT 06/04 A302 RMK A01 T00640043  RH  087%=      5-min Rain = 0
KREE 060650Z 18005KT 06/04 A302 RMK A01 T00630043  RH  088%=      5-min Rain = 0
KREE 060655Z 19005KT 06/04 A302 RMK A01 T00640043  RH  088%=      5-min Rain = 0
KREE 060700Z 19005KT 06/04 A302 RMK A01 T00620042  RH  088%=      5-min Rain = 0
KREE 060705Z 19005KT 06/04 A302 RMK A01 T00620043  RH  089%=      5-min Rain = 0
KREE 060710Z 18004KT 07/05 A302 RMK A01 T00650046  RH  089%=      5-min Rain = 0
KREE 060715Z 18003KT 07/05 A302 RMK A01 T00650046  RH  089%=      5-min Rain = 0
KREE 060720Z 18003KT 07/05 A302 RMK A01 T00650046  RH  089%=      5-min Rain = 0
KREE 060725Z 21002KT 06/04 A302 RMK A01 T00640044  RH  088%=      5-min Rain = 0
KREE 060730Z 26002KT 06/04 A302 RMK A01 T00580037  RH  087%=      5-min Rain = 0
KREE 060735Z 26002KT 05/04 A302 RMK A01 T00540035  RH  089%=      5-min Rain = 0
KREE 060740Z 27001KT 06/04 A3019 RMK A01 T00580040  RH  090%=      5-min Rain = 0
KREE 060745Z 28001KT 06/04 A3019 RMK A01 T00580039  RH  089%=      5-min Rain = 0
KREE 060750Z 29001KT 06/04 A3019 RMK A01 T00560037  RH  089%=      5-min Rain = 0
KREE 060755Z 31001KT 06/04 A3019 RMK A01 T00570038  RH  089%=      5-min Rain = 0
KREE 060800Z 30001KT 06/04 A3019 RMK A01 T00600042  RH  089%=      5-min Rain = 0
KREE 060805Z 29001KT 06/04 A3019 RMK A01 T00620044  RH  089%=      5-min Rain = 0
KREE 060810Z 28001KT 07/05 A3019 RMK A01 T00660046  RH  088%=      5-min Rain = 0
KREE 060815Z 26000KT 07/05 A3019 RMK A01 T00690046  RH  086%=      5-min Rain = 0
KREE 060820Z 20000KT 07/05 A3019 RMK A01 T00730053  RH  088%=      5-min Rain = 0
KREE 060825Z 20001KT 07/05 A3019 RMK A01 T00730054  RH  089%=      5-min Rain = 0
KREE 060830Z 20001KT 07/05 A3019 RMK A01 T00710049  RH  087%=      5-min Rain = 0
KREE 060835Z 21002KT 07/05 A3019 RMK A01 T00700045  RH  085%=      5-min Rain = 0
KREE 060840Z 23002KT 07/04 A3019 RMK A01 T00680043  RH  085%=      5-min Rain = 0
KREE 060845Z 23003KT 06/04 A3019 RMK A01 T00620040  RH  086%=      5-min Rain = 0
KREE 060850Z 24003KT 06/04 A3019 RMK A01 T00620041  RH  088%=      5-min Rain = 0
KREE 060855Z 25003KT 06/04 A3018 RMK A01 T00600039  RH  088%=      5-min Rain = 0
KREE 060900Z 25003KT 06/04 A3018 RMK A01 T00600039  RH  088%=      5-min Rain = 0
KREE 060905Z 24004KT 06/04 A3018 RMK A01 T00600040  RH  088%=      5-min Rain = 0
KREE 060910Z 24004KT 06/04 A3018 RMK A01 T00590040  RH  089%=      5-min Rain = 0
KREE 060915Z 24003KT 06/04 A3018 RMK A01 T00560037  RH  089%=      5-min Rain = 0
KREE 060920Z 22002KT 06/04 A3018 RMK A01 T00560038  RH  089%=      5-min Rain = 0
KREE 060925Z 22002KT 06/04 A3018 RMK A01 T00590042  RH  090%=      5-min Rain = 0
KREE 060930Z 23002KT 06/04 A3018 RMK A01 T00610043  RH  090%=      5-min Rain = 0
KREE 060935Z 28002KT 07/05 A3018 RMK A01 T00650046  RH  089%=      5-min Rain = 0
KREE 060940Z 31003KT 07/05 A3018 RMK A01 T00680049  RH  088%=      5-min Rain = 0
KREE 060945Z 32003KT 07/05 A3018 RMK A01 T00680046  RH  087%=      5-min Rain = 0
KREE 060950Z 29003KT 07/05 A3018 RMK A01 T00690047  RH  087%=      5-min Rain = 0
KREE 060955Z 29003KT 07/05 A3018 RMK A01 T00710049  RH  087%=      5-min Rain = 0
KREE 061000Z 30004KT 07/05 A3018 RMK A01 T00730050  RH  087%=      5-min Rain = 0
KREE 061005Z 31004KT 08/05 A3018 RMK A01 T00750052  RH  086%=      5-min Rain = 0
KREE 061010Z 31005KT 08/05 A3019 RMK A01 T00780053  RH  086%=      5-min Rain = 0
KREE 061015Z 30005KT 08/06 A3019 RMK A01 T00810055  RH  085%=      5-min Rain = 0
KREE 061020Z 30005KT 08/06 A3019 RMK A01 T00840056  RH  084%=      5-min Rain = 0
KREE 061025Z 29005KT 09/06 A3019 RMK A01 T00850056  RH  083%=      5-min Rain = 0
KREE 061030Z 29006KT 09/06 A3019 RMK A01 T00870056  RH  083%=      5-min Rain = 0
KREE 061035Z 28005KT 09/06 A3019 RMK A01 T00880057  RH  082%=      5-min Rain = 0
KREE 061040Z 27003KT 09/06 A3019 RMK A01 T00900056  RH  081%=      5-min Rain = 0
KREE 061045Z 25002KT 09/06 A3018 RMK A01 T00910057  RH  081%=      5-min Rain = 0
KREE 061050Z 18002KT 09/06 A3018 RMK A01 T00910057  RH  080%=      5-min Rain = 0
KREE 061055Z 19002KT 09/05 A3018 RMK A01 T00880054  RH  080%=      5-min Rain = 0
KREE 061100Z 23002KT 09/05 A3018 RMK A01 T00860053  RH  081%=      5-min Rain = 0
KREE 061105Z 18001KT 08/05 A3017 RMK A01 T00830051  RH  081%=      5-min Rain = 0
KREE 061110Z 15002KT 08/05 A3017 RMK A01 T00810050  RH  082%=      5-min Rain = 0
KREE 061115Z 15003KT 08/05 A3017 RMK A01 T00780048  RH  083%=      5-min Rain = 0
KREE 061120Z 14004KT 08/05 A3016 RMK A01 T00760048  RH  083%=      5-min Rain = 0
KREE 061125Z 16004KT 08/05 A3017 RMK A01 T00770050  RH  084%=      5-min Rain = 0
KREE 061130Z 18003KT 08/05 A3017 RMK A01 T00780050  RH  084%=      5-min Rain = 0
KREE 061135Z 18003KT 08/05 A3017 RMK A01 T00770049  RH  083%=      5-min Rain = 0
KREE 061140Z 16003KT 08/05 A3017 RMK A01 T00770049  RH  084%=      5-min Rain = 0
KREE 061145Z 17004KT 08/05 A3017 RMK A01 T00780050  RH  084%=      5-min Rain = 0
KREE 061150Z 17003KT 08/05 A3017 RMK A01 T00790052  RH  084%=      5-min Rain = 0
KREE 061155Z 13002KT 08/05 A3016 RMK A01 T00810053  RH  084%=      5-min Rain = 0
KREE 061200Z 02004KT 08/05 A3017 RMK A01 T00800051  RH  083%=      5-min Rain = 0
KREE 061205Z 00006KT 08/05 A3017 RMK A01 T00760050  RH  084%=      5-min Rain = 0
KREE 061210Z 01003KT 08/06 A3017 RMK A01 T00820056  RH  085%=      5-min Rain = 0
KREE 061215Z 09002KT 09/06 A3017 RMK A01 T00860058  RH  083%=      5-min Rain = 0
KREE 061220Z 09002KT 09/06 A3017 RMK A01 T00870057  RH  082%=      5-min Rain = 0
KREE 061225Z 11001KT 09/06 A3017 RMK A01 T00880057  RH  082%=      5-min Rain = 0
KREE 061230Z 32002KT 09/06 A3018 RMK A01 T00880057  RH  082%=      5-min Rain = 0
KREE 061235Z 31002KT 09/06 A3018 RMK A01 T00890058  RH  082%=      5-min Rain = 0
KREE 061240Z 30000KT 09/06 A3018 RMK A01 T00900059  RH  082%=      5-min Rain = 0
KREE 061245Z 14001KT 09/06 A3017 RMK A01 T00900059  RH  082%=      5-min Rain = 0
KREE 061250Z 14003KT 09/06 A3017 RMK A01 T00910060  RH  082%=      5-min Rain = 0
KREE 061255Z 15003KT 09/06 A3017 RMK A01 T00940061  RH  081%=      5-min Rain = 0
KREE 061300Z 14003KT 10/06 A3017 RMK A01 T00970063  RH  081%=      5-min Rain = 0
KREE 061305Z 13002KT 10/06 A3017 RMK A01 T00990064  RH  080%=      5-min Rain = 0
KREE 061310Z 12001KT 10/07 A3016 RMK A01 T01010065  RH  080%=      5-min Rain = 0
KREE 061315Z 13002KT 10/07 A3016 RMK A01 T01020066  RH  080%=      5-min Rain = 0
KREE 061320Z 13002KT 10/07 A3016 RMK A01 T01040067  RH  079%=      5-min Rain = 0
KREE 061325Z 11001KT 11/07 A3016 RMK A01 T01050067  RH  079%=      5-min Rain = 0
KREE 061330Z 13001KT 11/07 A3017 RMK A01 T01050068  RH  079%=      5-min Rain = 0
KREE 061335Z 17000KT 11/07 A3017 RMK A01 T01070069  RH  079%=      5-min Rain = 0
KREE 061340Z 28000KT 11/07 A3018 RMK A01 T01090070  RH  078%=      5-min Rain = 0
KREE 061345Z 32001KT 11/07 A3018 RMK A01 T01110072  RH  078%=      5-min Rain = 0
KREE 061350Z 34001KT 11/07 A3018 RMK A01 T01130073  RH  078%=      5-min Rain = 0
KREE 061355Z 28001KT 12/07 A3018 RMK A01 T01150074  RH  077%=      5-min Rain = 0
KREE 061400Z 23002KT 12/08 A3018 RMK A01 T01180077  RH  077%=      5-min Rain = 0
KREE 061405Z 24003KT 12/08 A3018 RMK A01 T01220080  RH  077%=      5-min Rain = 0
KREE 061410Z 25004KT 13/08 A3019 RMK A01 T01250081  RH  076%=      5-min Rain = 0
KREE 061415Z 25004KT 13/09 A3019 RMK A01 T01280085  RH  076%=      5-min Rain = 0
KREE 061420Z 24004KT 13/09 A3019 RMK A01 T01290085  RH  076%=      5-min Rain = 0
KREE 061425Z 24004KT 13/09 A3019 RMK A01 T01300085  RH  075%=      5-min Rain = 0
KREE 061430Z 25005KT 13/08 A302 RMK A01 T01300084  RH  075%=      5-min Rain = 0
KREE 061435Z 26005KT 13/08 A302 RMK A01 T01300083  RH  074%=      5-min Rain = 0
KREE 061440Z 26004KT 13/08 A302 RMK A01 T01300082  RH  074%=      5-min Rain = 0
KREE 061445Z 26003KT 13/08 A302 RMK A01 T01300082  RH  073%=      5-min Rain = 0
KREE 061450Z 24001KT 13/08 A302 RMK A01 T01310080  RH  073%=      5-min Rain = 0
KREE 061455Z 15005KT 13/09 A3019 RMK A01 T01330085  RH  074%=      5-min Rain = 0
KREE 061500Z 16007KT 14/09 A3018 RMK A01 T01360093  RH  077%=      5-min Rain = 0
KREE 061505Z 14008KT 14/10 A3016 RMK A01 T01390100  RH  079%=      5-min Rain = 0
KREE 061510Z 27006G12KT 14/10 A3017 RMK A01 T01400103  RH  080%=      5-min Rain = 0
KREE 061515Z 31010KT 14/11 A3018 RMK A01 T01400105  RH  080%=      5-min Rain = 0
KREE 061520Z 22005KT 14/11 A3018 RMK A01 T01420113  RH  084%=      5-min Rain = 0
KREE 061525Z 19005KT 14/12 A3018 RMK A01 T01440115  RH  084%=      5-min Rain = 0
KREE 061530Z 23003KT 15/12 A3018 RMK A01 T01460117  RH  084%=      5-min Rain = 0
KREE 061535Z 18003KT 15/12 A3017 RMK A01 T01470118  RH  084%=      5-min Rain = 0
KREE 061540Z 16004KT 15/12 A3016 RMK A01 T01510120  RH  083%=      5-min Rain = 0
KREE 061545Z 27004KT 15/12 A3017 RMK A01 T01540122  RH  082%=      5-min Rain = 0
KREE 061550Z 25006KT 16/12 A3018 RMK A01 T01560121  RH  082%=      5-min Rain = 0
KREE 061555Z 22005KT 16/12 A3017 RMK A01 T01560121  RH  081%=      5-min Rain = 0
KREE 061600Z 21007KT 16/12 A3018 RMK A01 T01590122  RH  080%=      5-min Rain = 0
KREE 061605Z 22009KT 16/13 A3019 RMK A01 T01620127  RH  082%=      5-min Rain = 0
KREE 061610Z 27011KT 16/12 A3021 RMK A01 T01610124  RH  080%=      5-min Rain = 0
KREE 061615Z 27010KT 16/12 A3021 RMK A01 T01600123  RH  080%=      5-min Rain = 0
KREE 061620Z 26009KT 16/13 A302 RMK A01 T01640128  RH  081%=      5-min Rain = 0
KREE 061625Z 26009KT 17/13 A302 RMK A01 T01700131  RH  079%=      5-min Rain = 0
KREE 061630Z 26010G15KT 17/13 A3019 RMK A01 T01730134  RH  079%=      5-min Rain = 0
KREE 061635Z 22006KT 17/14 A3017 RMK A01 T01740135  RH  079%=      5-min Rain = 0
KREE 061640Z 15008G17KT 18/14 A3014 RMK A01 T01790137  RH  078%=      5-min Rain = 0
KREE 061645Z 16016G21KT 19/14 A3012 RMK A01 T01880141  RH  076%=      5-min Rain = 0
KREE 061650Z 17015KT 19/14 A3013 RMK A01 T01890142  RH  075%=      5-min Rain = 0
KREE 061655Z 18016G21KT 19/15 A3013 RMK A01 T01940147  RH  076%=      5-min Rain = 0
KREE 061700Z 18015G20KT 20/15 A3013 RMK A01 T02010150  RH  074%=      5-min Rain = 0
KREE 061705Z 18015G21KT 20/15 A3013 RMK A01 T02000151  RH  075%=      5-min Rain = 0
KREE 061710Z 18014G19KT 20/15 A3013 RMK A01 T02020152  RH  075%=      5-min Rain = 0
KREE 061715Z 18014KT 20/15 A3013 RMK A01 T02040152  RH  074%=      5-min Rain = 0
KREE 061720Z 18016KT 20/15 A3013 RMK A01 T02040153  RH  074%=      5-min Rain = 0
KREE 061725Z 19015KT 21/15 A3013 RMK A01 T02080153  RH  072%=      5-min Rain = 0
KREE 061730Z 18015G20KT 21/15 A3012 RMK A01 T02080153  RH  072%=      5-min Rain = 0
KREE 061735Z 19014KT 21/15 A3013 RMK A01 T02090154  RH  072%=      5-min Rain = 0
KREE 061740Z 19016KT 21/15 A3013 RMK A01 T02100151  RH  071%=      5-min Rain = 0
KREE 061745Z 19017G22KT 21/15 A3013 RMK A01 T02110149  RH  069%=      5-min Rain = 0
KREE 061750Z 19017G22KT 21/15 A3013 RMK A01 T02110146  RH  068%=      5-min Rain = 0
KREE 061755Z 20016KT 21/15 A3013 RMK A01 T02080148  RH  070%=      5-min Rain = 0
KREE 061800Z 21016G21KT 20/15 A3013 RMK A01 T02020150  RH  073%=      5-min Rain = 0
KREE 061805Z 21015G20KT 20/15 A3013 RMK A01 T02020152  RH  074%=      5-min Rain = 0
KREE 061810Z 20017KT 20/15 A3013 RMK A01 T02040151  RH  073%=      5-min Rain = 0
KREE 061815Z 21016KT 20/15 A3013 RMK A01 T02030151  RH  074%=      5-min Rain = 0
KREE 061820Z 20017KT 20/15 A3013 RMK A01 T02000149  RH  074%=      5-min Rain = 0
KREE 061825Z 21014KT 20/15 A3013 RMK A01 T02010147  RH  072%=      5-min Rain = 0
KREE 061830Z 21011KT 20/15 A3012 RMK A01 T02010145  RH  072%=      5-min Rain = 0
KREE 061835Z 21013KT 20/15 A3013 RMK A01 T02010145  RH  072%=      5-min Rain = 0
KREE 061840Z 23012KT 20/15 A3013 RMK A01 T02010148  RH  073%=      5-min Rain = 0
KREE 061845Z 24015KT 20/15 A3014 RMK A01 T01960151  RH  077%=      5-min Rain = 0
KREE 061850Z 24015G21KT 20/15 A3015 RMK A01 T01950152  RH  077%=      5-min Rain = 0
KREE 061855Z 24017G22KT 19/15 A3015 RMK A01 T01920153  RH  080%=      5-min Rain = 0
KREE 061900Z 24015G20KT 19/16 A3014 RMK A01 T01890155  RH  083%=      5-min Rain = 0
KREE 061905Z 24014KT 19/16 A3013 RMK A01 T01850156  RH  085%=      5-min Rain = 0
KREE 061910Z 24013G18KT 18/16 A3013 RMK A01 T01820156  RH  086%=      5-min Rain = 0
KREE 061915Z 25013KT 18/16 A3014 RMK A01 T01800156  RH  088%=      5-min Rain = 0
KREE 061920Z 24012KT 18/16 A3014 RMK A01 T01780157  RH  089%=      5-min Rain = 0
KREE 061925Z 24012KT 18/16 A3014 RMK A01 T01770157  RH  090%=      5-min Rain = 0
KREE 061930Z 23012KT 18/16 A3014 RMK A01 T01760156  RH  090%=      5-min Rain = 0
KREE 061935Z 23013KT 18/16 A3014 RMK A01 T01750155  RH  090%=      5-min Rain = 0
KREE 061940Z 23013KT 17/16 A3014 RMK A01 T01740155  RH  090%=      5-min Rain = 0
KREE 061945Z 23013KT 17/15 A3013 RMK A01 T01730154  RH  091%=      5-min Rain = 0.01
KREE 061950Z 23013KT 17/15 A3013 RMK A01 T01730154  RH  091%=      5-min Rain = 0
KREE 061955Z 23014KT 17/15 A3012 RMK A01 T01720154  RH  091%=      5-min Rain = 0.01
KREE 062000Z 23011KT 17/15 A3012 RMK A01 T01710154  RH  092%=      5-min Rain = 0.01
KREE 062005Z 23011KT 17/15 A3011 RMK A01 T01700154  RH  092%=      5-min Rain = 0
KREE 062010Z 22012KT 17/15 A3012 RMK A01 T01690154  RH  093%=      5-min Rain = 0.01
KREE 062015Z 22012KT 17/15 A3012 RMK A01 T01690154  RH  093%=      5-min Rain = 0.01
KREE 062020Z 22013KT 17/15 A3013 RMK A01 T01680154  RH  093%=      5-min Rain = 0.01
KREE 062025Z 22012KT 17/15 A3013 RMK A01 T01680154  RH  093%=      5-min Rain = 0.03
KREE 062030Z 21011KT 17/15 A3013 RMK A01 T01670153  RH  093%=      5-min Rain = 0.01
KREE 062035Z 21012KT 17/15 A3012 RMK A01 T01660151  RH  093%=      5-min Rain = 0
KREE 062040Z 21008KT 17/15 A3012 RMK A01 T01660149  RH  092%=      5-min Rain = 0
KREE 062045Z 20007KT 17/15 A3012 RMK A01 T01650149  RH  093%=      5-min Rain = 0
KREE 062050Z 20008KT 16/15 A3013 RMK A01 T01640150  RH  093%=      5-min Rain = 0.01
KREE 062055Z 19007KT 16/15 A3013 RMK A01 T01630150  RH  094%=      5-min Rain = 0
KREE 062100Z 18007KT 16/15 A3012 RMK A01 T01630150  RH  094%=      5-min Rain = 0
KREE 062105Z 16009KT 16/15 A3012 RMK A01 T01630151  RH  095%=      5-min Rain = 0.01
KREE 062110Z 15012KT 16/15 A301 RMK A01 T01630152  RH  095%=      5-min Rain = 0
KREE 062115Z 14012KT 16/15 A301 RMK A01 T01630152  RH  095%=      5-min Rain = 0
KREE 062120Z 13012KT 16/15 A3009 RMK A01 T01630152  RH  095%=      5-min Rain = 0
KREE 062125Z 13011KT 16/15 A3008 RMK A01 T01630152  RH  095%=      5-min Rain = 0
KREE 062130Z 14009KT 16/15 A3009 RMK A01 T01620151  RH  095%=      5-min Rain = 0
KREE 062135Z 16007KT 16/15 A301 RMK A01 T01610150  RH  095%=      5-min Rain = 0
KREE 062140Z 19007KT 16/15 A3011 RMK A01 T01610149  RH  095%=      5-min Rain = 0.01
KREE 062145Z 19006KT 16/15 A3011 RMK A01 T01600148  RH  095%=      5-min Rain = 0.01
KREE 062150Z 17006KT 16/15 A3011 RMK A01 T01590147  RH  095%=      5-min Rain = 0
KREE 062155Z 15004KT 16/15 A301 RMK A01 T01580147  RH  095%=      5-min Rain = 0.01
KREE 062200Z 13002KT 16/15 A3009 RMK A01 T01570146  RH  095%=      5-min Rain = 0
KREE 062205Z 10002KT 16/15 A301 RMK A01 T01570147  RH  095%=      5-min Rain = 0
KREE 062210Z 13001KT 16/15 A301 RMK A01 T01570146  RH  095%=      5-min Rain = 0
KREE 062215Z 21002KT 16/15 A3011 RMK A01 T01570146  RH  095%=      5-min Rain = 0.01
KREE 062220Z 23003KT 16/15 A3011 RMK A01 T01550145  RH  095%=      5-min Rain = 0
KREE 062225Z 24004KT 15/14 A3012 RMK A01 T01540144  RH  096%=      5-min Rain = 0
KREE 062230Z 24006KT 15/14 A3013 RMK A01 T01530143  RH  096%=      5-min Rain = 0.01
KREE 062235Z 26006KT 15/14 A3013 RMK A01 T01520144  RH  096%=      5-min Rain = 0
KREE 062240Z 26006KT 15/15 A3013 RMK A01 T01530145  RH  097%=      5-min Rain = 0.02
KREE 062245Z 27005KT 15/15 A3013 RMK A01 T01540145  RH  097%=      5-min Rain = 0
KREE 062250Z 26002KT 15/15 A3012 RMK A01 T01540145  RH  097%=      5-min Rain = 0.04
KREE 062255Z 22003KT 15/15 A3012 RMK A01 T01540146  RH  097%=      5-min Rain = 0.01
KREE 062300Z 20005KT 15/15 A3012 RMK A01 T01530145  RH  097%=      5-min Rain = 0
KREE 062305Z 18006KT 15/14 A3011 RMK A01 T01520144  RH  097%=      5-min Rain = 0
KREE 062310Z 17009KT 15/14 A3011 RMK A01 T01510143  RH  097%=      5-min Rain = 0.01
KREE 062315Z 16010KT 15/14 A3011 RMK A01 T01520144  RH  097%=      5-min Rain = 0
KREE 062320Z 15008KT 15/14 A3009 RMK A01 T01510143  RH  097%=      5-min Rain = 0
KREE 062325Z 14009KT 15/14 A3009 RMK A01 T01510143  RH  097%=      5-min Rain = 0
KREE 062330Z 13009KT 15/14 A3008 RMK A01 T01500142  RH  097%=      5-min Rain = 0
KREE 062335Z 14010KT 15/14 A3009 RMK A01 T01480141  RH  097%=      5-min Rain = 0
KREE 062340Z 15009KT 15/14 A3009 RMK A01 T01470139  RH  097%=      5-min Rain = 0
KREE 062345Z 16009KT 15/14 A301 RMK A01 T01450138  RH  097%=      5-min Rain = 0
KREE 062350Z 15007KT 14/14 A3009 RMK A01 T01440136  RH  097%=      5-min Rain = 0
KREE 062355Z 15007KT 14/14 A301 RMK A01 T01430135  RH  097%=      5-min Rain = 0
KREE 070000Z 17006KT 14/13 A301 RMK A01 T01420134  RH  097%=      5-min Rain = 0
KREE 070005Z 18004KT 14/13 A3011 RMK A01 T01420133  RH  097%=      5-min Rain = 0
KREE 070010Z 17006KT 14/13 A301 RMK A01 T01410133  RH  096%=      5-min Rain = 0
KREE 070015Z 18005KT 14/13 A3011 RMK A01 T01410132  RH  096%=      5-min Rain = 0
KREE 070020Z 22003KT 14/13 A3011 RMK A01 T01400131  RH  096%=      5-min Rain = 0
KREE 070025Z 29002KT 14/13 A3011 RMK A01 T01400130  RH  096%=      5-min Rain = 0
KREE 070030Z 23001KT 14/13 A3011 RMK A01 T01390129  RH  096%=      5-min Rain = 0
KREE 070035Z 26003KT 14/13 A3013 RMK A01 T01390129  RH  096%=      5-min Rain = 0
KREE 070040Z 23003KT 14/13 A3013 RMK A01 T01380129  RH  096%=      5-min Rain = 0
KREE 070045Z 27004KT 14/13 A3014 RMK A01 T01380128  RH  096%=      5-min Rain = 0
KREE 070050Z 27003KT 14/13 A3014 RMK A01 T01380129  RH  096%=      5-min Rain = 0.01
KREE 070055Z 26002KT 14/13 A3013 RMK A01 T01380129  RH  096%=      5-min Rain = 0.01
KREE 070100Z 24003KT 14/13 A3014 RMK A01 T01380129  RH  096%=      5-min Rain = 0
KREE 070105Z 25003KT 14/13 A3014 RMK A01 T01370128  RH  096%=      5-min Rain = 0
KREE 070110Z 26003KT 14/13 A3013 RMK A01 T01370129  RH  096%=      5-min Rain = 0
KREE 070115Z 27002KT 14/13 A3013 RMK A01 T01370128  RH  096%=      5-min Rain = 0
KREE 070120Z 24004KT 14/13 A3014 RMK A01 T01370129  RH  096%=      5-min Rain = 0
KREE 070125Z 25003KT 14/13 A3013 RMK A01 T01360128  RH  096%=      5-min Rain = 0
KREE 070130Z 26004KT 14/13 A3014 RMK A01 T01360128  RH  097%=      5-min Rain = 0
KREE 070135Z 25005KT 14/13 A3014 RMK A01 T01360128  RH  097%=      5-min Rain = 0
KREE 070140Z 26006KT 14/13 A3014 RMK A01 T01360128  RH  097%=      5-min Rain = 0
KREE 070145Z 25003KT 14/13 A3014 RMK A01 T01360129  RH  097%=      5-min Rain = 0
KREE 070150Z 24003KT 14/13 A3013 RMK A01 T01360128  RH  097%=      5-min Rain = 0
KREE 070155Z 23003KT 14/13 A3013 RMK A01 T01360128  RH  097%=      5-min Rain = 0
KREE 070200Z 23004KT 14/13 A3013 RMK A01 T01360128  RH  097%=      5-min Rain = 0
KREE 070205Z 22004KT 14/13 A3013 RMK A01 T01350127  RH  097%=      5-min Rain = 0
KREE 070210Z 22004KT 13/13 A3013 RMK A01 T01340127  RH  097%=      5-min Rain = 0
KREE 070215Z 22005KT 13/13 A3013 RMK A01 T01340127  RH  097%=      5-min Rain = 0
KREE 070220Z 19005KT 13/13 A3012 RMK A01 T01340127  RH  097%=      5-min Rain = 0
KREE 070225Z 16004KT 13/13 A3011 RMK A01 T01340127  RH  097%=      5-min Rain = 0
KREE 070230Z 16004KT 13/13 A3011 RMK A01 T01330126  RH  098%=      5-min Rain = 0
KREE 070235Z 15003KT 13/13 A301 RMK A01 T01330127  RH  098%=      5-min Rain = 0
KREE 070240Z 16005KT 13/13 A301 RMK A01 T01330126  RH  098%=      5-min Rain = 0
KREE 070245Z 14004KT 13/13 A3009 RMK A01 T01330127  RH  098%=      5-min Rain = 0
KREE 070250Z 13007KT 13/13 A3008 RMK A01 T01330127  RH  098%=      5-min Rain = 0
KREE 070255Z 13008KT 13/13 A3007 RMK A01 T01340128  RH  098%=      5-min Rain = 0
KREE 070300Z 14009KT 14/13 A3007 RMK A01 T01350129  RH  098%=      5-min Rain = 0
KREE 070305Z 16011KT 14/13 A3008 RMK A01 T01350129  RH  098%=      5-min Rain = 0
KREE 070310Z 16007KT 14/13 A301 RMK A01 T01350129  RH  098%=      5-min Rain = 0
KREE 070315Z 18006KT 14/13 A3011 RMK A01 T01350129  RH  098%=      5-min Rain = 0
KREE 070320Z 16009KT 14/13 A3012 RMK A01 T01350129  RH  098%=      5-min Rain = 0
KREE 070325Z 17007KT 14/13 A3012 RMK A01 T01350129  RH  098%=      5-min Rain = 0
KREE 070330Z 18006KT 14/13 A3013 RMK A01 T01350129  RH  098%=      5-min Rain = 0
KREE 070335Z 18006KT 14/13 A3013 RMK A01 T01350129  RH  098%=      5-min Rain = 0
KREE 070340Z 18006KT 14/13 A3013 RMK A01 T01350129  RH  098%=      5-min Rain = 0
KREE 070345Z 18004KT 14/13 A3013 RMK A01 T01350129  RH  098%=      5-min Rain = 0
KREE 070350Z 20003KT 13/13 A3013 RMK A01 T01340128  RH  098%=      5-min Rain = 0
KREE 070355Z 19003KT 13/13 A3012 RMK A01 T01340128  RH  098%=      5-min Rain = 0
KREE 070400Z 19003KT 13/13 A3012 RMK A01 T01340128  RH  098%=      5-min Rain = 0
KREE 070405Z 18003KT 13/13 A3012 RMK A01 T01340128  RH  098%=      5-min Rain = 0
KREE 070410Z 18003KT 13/13 A3013 RMK A01 T01340128  RH  098%=      5-min Rain = 0
KREE 070415Z 18006KT 13/13 A3013 RMK A01 T01340128  RH  098%=      5-min Rain = 0
KREE 070420Z 19007KT 14/13 A3014 RMK A01 T01350129  RH  098%=      5-min Rain = 0
KREE 070425Z 19006KT 13/13 A3014 RMK A01 T01340129  RH  098%=      5-min Rain = 0
KREE 070430Z 18007KT 13/13 A3015 RMK A01 T01340129  RH  098%=      5-min Rain = 0
KREE 070435Z 18006KT 14/13 A3015 RMK A01 T01350129  RH  098%=      5-min Rain = 0
KREE 070440Z 17006KT 13/13 A3015 RMK A01 T01340129  RH  098%=      5-min Rain = 0.01
KREE 070445Z 18003KT 13/13 A3015 RMK A01 T01340129  RH  098%=      5-min Rain = 0.01
KREE 070450Z 22002KT 14/13 A3016 RMK A01 T01350129  RH  098%=      5-min Rain = 0
KREE 070455Z 24002KT 13/13 A3016 RMK A01 T01340129  RH  098%=      5-min Rain = 0.01
KREE 070500Z 20001KT 14/13 A3016 RMK A01 T01350129  RH  098%=      5-min Rain = 0.01
KREE 070505Z 21001KT 14/13 A3016 RMK A01 T01350130  RH  099%=      5-min Rain = 0.03
KREE 070510Z 29002KT 14/13 A3016 RMK A01 T01350130  RH  099%=      5-min Rain = 0.01
KREE 070515Z 00002KT 13/13 A3015 RMK A01 T01340129  RH  098%=      5-min Rain = 0
KREE 070520Z 01003KT 13/13 A3016 RMK A01 T01330128  RH  099%=      5-min Rain = 0.01
KREE 070525Z 04002KT 13/13 A3016 RMK A01 T01330128  RH  099%=      5-min Rain = 0
KREE 070530Z 02002KT 13/13 A3016 RMK A01 T01330128  RH  099%=      5-min Rain = 0
KREE 070535Z 01003KT 13/13 A3017 RMK A01 T01320127  RH  099%=      5-min Rain = 0
KREE 070540Z 03003KT 13/13 A3017 RMK A01 T01320127  RH  099%=      5-min Rain = 0
KREE 070545Z 03003KT 13/13 A3017 RMK A01 T01320127  RH  099%=      5-min Rain = 0
KREE 070550Z 02004KT 13/13 A3017 RMK A01 T01320127  RH  099%=      5-min Rain = 0
KREE 070555Z 00005KT 13/13 A3018 RMK A01 T01310127  RH  099%=      5-min Rain = 0

Page generated in 0.0251 seconds.